Data for 03/31/2013

Time Sea-Level Adjusted Pressure Absolute Pressure Temperature Relative Humidity Dew Point   
(mb) (inHg) (mb) (inHg) (C) (F) (%) (C) (F)
00:05 1020 30.12 849 25.07 4.4 40 49 -5.2 22.6
00:10 1020 30.12 849 25.07 4.3 39.7 49 -5.6 21.9
00:15 1020 30.12 849 25.07 4.3 39.8 48 -5.8 21.5
00:20 1020 30.12 849 25.07 4.4 39.9 47 -5.9 21.4
00:25 1020 30.12 849 25.07 4.4 39.9 47 -5.9 21.3
00:30 1020 30.12 849 25.07 4.2 39.6 47 -6 21.2
00:35 1020 30.12 849 25.07 4.3 39.7 47 -6.1 21.1
00:40 1020 30.12 849 25.07 4.2 39.6 50 -5.3 22.4
00:45 1020 30.12 849 25.07 3.4 38.1 55 -4.9 23.1
00:50 1020 30.12 849 25.07 3 37.4 55 -5.2 22.7
00:55 1020 30.12 849 25.07 3.1 37.5 54 -5.4 22.4
01:00 1020 30.12 849 25.07 3.2 37.7 55 -5 23
01:05 1020 30.12 849 25.07 3 37.4 57 -4.8 23.4
01:10 1020 30.12 849 25.07 2.9 37.2 57 -4.8 23.4
01:15 1020 30.12 849 25.07 2.6 36.6 59 -4.6 23.7
01:20 1020 30.12 849 25.07 2.2 36 60 -4.6 23.7
01:25 1020 30.12 849 25.07 2.3 36.1 60 -4.7 23.6
01:30 1020 30.12 849 25.07 2.5 36.6 58 -5 23.1
01:35 1020 30.12 849 25.07 3 37.3 58 -4.4 24
01:40 1020 30.12 849 25.07 2.9 37.2 58 -4.6 23.7
01:45 1020 30.12 849 25.07 2.7 36.8 59 -4.6 23.8
01:50 1020 30.12 849 25.07 2.5 36.6 59 -4.7 23.6
01:55 1020 30.12 849 25.07 2.4 36.3 60 -4.5 23.9
02:00 1020 30.12 849 25.07 2.5 36.4 59 -4.8 23.4
02:05 1019 30.09 849 25.07 2.6 36.7 59 -4.6 23.7
02:10 1019 30.09 849 25.07 2.5 36.5 60 -4.6 23.7
02:15 1019 30.09 849 25.07 2.4 36.3 60 -4.6 23.7
02:20 1019 30.09 849 25.07 2.4 36.3 58 -5.1 22.9
02:25 1019 30.09 849 25.07 2.6 36.7 56 -5.3 22.5
02:30 1019 30.09 848 25.04 2.8 37.1 56 -5.1 22.9
02:35 1019 30.09 848 25.04 2.6 36.6 58 -4.8 23.4
02:40 1019 30.09 848 25.04 2.3 36.2 59 -4.8 23.3
02:45 1019 30.09 848 25.04 2.6 36.6 58 -4.8 23.4
02:50 1019 30.09 848 25.04 2.8 37 56 -5.1 22.9
02:55 1019 30.09 848 25.04 2.6 36.7 58 -5 23.1
03:00 1019 30.09 848 25.04 2.4 36.2 59 -4.8 23.3
03:05 1019 30.09 848 25.04 2.3 36.2 59 -4.8 23.3
03:10 1019 30.09 848 25.04 2.2 36 58 -5.1 22.8
03:15 1019 30.09 848 25.04 2.1 35.8 60 -4.9 23.1
03:20 1019 30.09 848 25.04 2.1 35.7 61 -4.6 23.7
03:25 1019 30.09 848 25.04 1.9 35.3 62 -4.6 23.7
03:30 1019 30.09 848 25.04 2.1 35.7 61 -4.7 23.6
03:35 1019 30.09 848 25.04 2.4 36.4 60 -4.5 23.9
03:40 1019 30.09 848 25.04 2.4 36.3 60 -4.5 23.9
03:45 1019 30.09 848 25.04 2.1 35.8 60 -4.9 23.2
03:50 1019 30.09 848 25.04 2.3 36.1 59 -5 23.1
03:55 1019 30.09 848 25.04 2.4 36.3 59 -4.9 23.2
04:00 1019 30.09 848 25.04 2.4 36.4 60 -4.6 23.6
04:05 1019 30.09 848 25.04 2.3 36.1 59 -4.9 23.2
04:10 1019 30.09 848 25.04 2.1 35.8 60 -4.8 23.3
04:15 1019 30.09 848 25.04 2.2 36 57 -5.3 22.4
04:20 1019 30.09 848 25.04 2.5 36.4 57 -5.2 22.7
04:25 1019 30.09 848 25.04 2.3 36.2 55 -5.7 21.8
04:30 1019 30.09 848 25.04 2.6 36.7 56 -5.2 22.6
04:35 1019 30.09 848 25.04 2.5 36.5 57 -5.3 22.5
04:40 1019 30.09 848 25.04 2.4 36.3 58 -5 23
04:45 1019 30.09 848 25.04 2.4 36.3 57 -5.2 22.6
04:50 1019 30.09 848 25.04 2.6 36.8 54 -5.7 21.8
04:55 1019 30.09 848 25.04 2.5 36.5 57 -5.1 22.9
05:00 1019 30.09 848 25.04 2.5 36.5 56 -5.5 22.2
05:05 1019 30.09 848 25.04 2.6 36.7 56 -5.3 22.4
05:10 1019 30.09 848 25.04 2.7 36.9 56 -5.1 22.7
05:15 1019 30.09 848 25.04 2.4 36.4 57 -5.2 22.6
05:20 1019 30.09 848 25.04 2.3 36.1 58 -5.1 22.8
05:25 1019 30.09 848 25.04 2.3 36.1 56 -5.5 22.1
05:30 1019 30.09 848 25.04 2.2 36 59 -5 22.9
05:35 1019 30.09 848 25.04 1.9 35.5 61 -4.8 23.3
05:40 1019 30.09 848 25.04 1.7 35 61 -5.1 22.7
05:45 1019 30.09 848 25.04 1.8 35.2 59 -5.4 22.2
05:50 1019 30.09 849 25.07 1.7 35.1 60 -5.3 22.5
05:55 1019 30.09 849 25.07 1.7 35 60 -5.2 22.7
06:00 1019 30.09 849 25.07 1.7 35 60 -5.2 22.7
06:05 1019 30.09 849 25.07 1.9 35.4 57 -5.8 21.6
06:10 1020 30.12 849 25.07 2 35.6 58 -5.4 22.3
06:15 1020 30.12 849 25.07 2 35.6 58 -5.4 22.4
06:20 1020 30.12 849 25.07 2.2 35.9 57 -5.6 22
06:25 1020 30.12 849 25.07 2.5 36.4 54 -5.8 21.6
06:30 1020 30.12 849 25.07 2.6 36.6 54 -5.7 21.7
06:35 1020 30.12 849 25.07 2.6 36.6 57 -5.2 22.7
06:40 1020 30.12 849 25.07 2.3 36.1 59 -5.1 22.9
06:45 1020 30.12 849 25.07 2.3 36.1 59 -5 23
06:50 1020 30.12 849 25.07 2.4 36.3 58 -4.9 23.1
06:55 1020 30.12 849 25.07 2.7 36.9 57 -5 23.1
07:00 1020 30.12 849 25.07 2.8 37.1 58 -4.7 23.5
07:05 1020 30.12 849 25.07 3 37.3 57 -4.8 23.4
07:10 1020 30.12 849 25.07 3.2 37.8 56 -4.8 23.3
07:15 1020 30.12 849 25.07 3.4 38.2 54 -5 23.1
07:20 1020 30.12 849 25.07 3.7 38.7 53 -4.9 23.1
07:25 1020 30.12 849 25.07 4 39.1 54 -4.4 24.1
07:30 1020 30.12 849 25.07 3.7 38.7 54 -4.7 23.6
07:35 1020 30.12 849 25.07 4.3 39.7 50 -5.2 22.6
07:40 1020 30.12 850 25.1 5.1 41.2 49 -4.7 23.5
07:45 1020 30.12 850 25.1 5.3 41.5 50 -4.4 24.1
07:50 1020 30.12 850 25.1 5.2 41.3 51 -4.2 24.5
07:55 1020 30.12 850 25.1 5.5 42 49 -4.3 24.2
08:00 1020 30.12 849 25.07 5.7 42.3 51 -3.6 25.4
08:05 1020 30.12 850 25.1 6.1 43 48 -4 24.7
08:10 1020 30.12 850 25.1 6.5 43.8 44 -4.9 23.1
08:15 1020 30.12 850 25.1 7 44.5 42 -4.9 23.1
08:20 1020 30.12 850 25.1 7.7 45.8 36 -6.4 20.6
08:25 1020 30.12 850 25.1 8.5 47.2 33 -7 19.5
08:30 1020 30.12 850 25.1 8.6 47.4 33 -6.7 19.9
08:35 1020 30.12 850 25.1 8.8 47.9 32 -6.8 19.8
08:40 1020 30.12 850 25.1 9.1 48.4 34 -6.1 21
08:45 1020 30.12 850 25.1 9 48.2 33 -6.3 20.6
08:50 1020 30.12 850 25.1 9.1 48.4 32 -6.7 19.9
08:55 1020 30.12 850 25.1 9.4 48.9 31 -6.7 19.9
09:00 1020 30.12 850 25.1 9.4 48.9 32 -6.4 20.6
09:05 1020 30.12 850 25.1 8.8 47.8 32 -6.8 19.7
09:10 1020 30.12 850 25.1 9.4 48.8 32 -6.7 20
09:15 1020 30.12 850 25.1 9.8 49.7 31 -6.4 20.6
09:20 1020 30.12 850 25.1 9.6 49.3 32 -6.4 20.6
09:25 1021 30.15 850 25.1 9.8 49.7 30 -6.8 19.8
09:30 1020 30.12 850 25.1 10.3 50.6 30 -6.6 20
09:35 1020 30.12 850 25.1 10.4 50.8 30 -6.3 20.6
09:40 1021 30.15 850 25.1 10.6 51 30 -6.3 20.6
09:45 1021 30.15 850 25.1 10.5 50.8 30 -6.2 20.8
09:50 1021 30.15 850 25.1 10.3 50.6 31 -6 21.2
09:55 1021 30.15 850 25.1 10.4 50.7 30 -6.5 20.3
10:00 1021 30.15 850 25.1 10.6 51.1 31 -5.9 21.4
10:05 1021 30.15 850 25.1 10.4 50.7 29 -6.8 19.8
10:10 1021 30.15 850 25.1 11.1 51.9 29 -6.4 20.5
10:15 1021 30.15 850 25.1 11.2 52.2 30 -5.8 21.5
10:20 1021 30.15 850 25.1 11.4 52.5 29 -6.1 21
10:25 1021 30.15 850 25.1 11.7 53.1 28 -6 21.3
10:30 1021 30.15 850 25.1 10.6 51 30 -6.2 20.9
10:35 1021 30.15 850 25.1 10.8 51.5 27 -7.6 18.3
10:40 1021 30.15 850 25.1 11.8 53.2 26 -6.9 19.5
10:45 1021 30.15 850 25.1 11.9 53.3 26 -7 19.4
10:50 1021 30.15 850 25.1 12.2 54 24 -7.8 18
10:55 1021 30.15 850 25.1 12.4 54.3 23 -8 17.7
11:00 1021 30.15 850 25.1 12.6 54.7 24 -7.6 18.3
11:05 1021 30.15 850 25.1 12.8 55 23 -7.7 18.2
11:10 1021 30.15 850 25.1 12.8 55 23 -7.8 17.9
11:15 1021 30.15 850 25.1 12.8 55 23 -7.7 18.2
11:20 1021 30.15 850 25.1 13 55.4 24 -7.2 19.1
11:25 1021 30.15 850 25.1 13 55.4 24 -7.3 18.8
11:30 1021 30.15 850 25.1 12.6 54.7 23 -7.7 18.1
11:35 1021 30.15 850 25.1 13 55.4 22 -8.2 17.2
11:40 1021 30.15 850 25.1 13.4 56 23 -7.4 18.7
11:45 1021 30.15 850 25.1 13 55.4 22 -8.3 17.1
11:50 1021 30.15 850 25.1 12.1 53.8 24 -7.7 18.1
11:55 1021 30.15 850 25.1 12.3 54.1 23 -8.5 16.7
12:00 1020 30.12 850 25.1 12.4 54.2 23 -8 17.7
12:05 1020 30.12 850 25.1 13.3 56 22 -7.6 18.3
12:10 1020 30.12 850 25.1 13.5 56.2 22 -7.7 18.1
12:15 1020 30.12 850 25.1 12 53.7 25 -7.2 19
12:20 1020 30.12 850 25.1 12.8 55 23 -7.6 18.3
12:25 1020 30.12 850 25.1 13.5 56.2 23 -7.3 18.8
12:30 1020 30.12 850 25.1 13.5 56.4 22 -7.5 18.5
12:35 1020 30.12 850 25.1 12.8 55.1 25 -6.7 20
12:40 1020 30.12 850 25.1 13.8 56.9 22 -7.4 18.8
12:45 1020 30.12 849 25.07 14.3 57.8 21 -7.5 18.5
12:50 1020 30.12 849 25.07 14.4 58 22 -7 19.5
12:55 1020 30.12 849 25.07 14.5 58.1 23 -6.3 20.7
13:00 1020 30.12 849 25.07 14.3 57.7 22 -7.3 18.9
13:05 1020 30.12 849 25.07 14.2 57.6 22 -7 19.4
13:10 1020 30.12 849 25.07 14.8 58.6 21 -7.3 18.8
13:15 1020 30.12 849 25.07 14.8 58.6 21 -7.2 19.1
13:20 1020 30.12 849 25.07 15 59 21 -7 19.5
13:25 1020 30.12 849 25.07 14.9 58.9 21 -6.9 19.5
13:30 1020 30.12 849 25.07 13.9 57 23 -6.8 19.7
13:35 1020 30.12 849 25.07 13.5 56.2 24 -6.6 20.2
13:40 1020 30.12 849 25.07 13.8 56.8 23 -7.2 19.1
13:45 1020 30.12 849 25.07 14.6 58.3 23 -6.3 20.6
13:50 1020 30.12 849 25.07 15.1 59.2 22 -6.4 20.4
13:55 1020 30.12 849 25.07 15.2 59.4 22 -6.1 20.9
14:00 1020 30.12 849 25.07 14.9 58.8 21 -6.9 19.6
14:05 1020 30.12 849 25.07 15 59 22 -6.6 20.1
14:10 1020 30.12 849 25.07 14.8 58.6 21 -7 19.4
14:15 1020 30.12 849 25.07 15.3 59.6 21 -6.9 19.7
14:20 1020 30.12 849 25.07 15.4 59.8 21 -6.5 20.2
14:25 1019 30.09 849 25.07 14.8 58.7 22 -6.7 19.9
14:30 1019 30.09 849 25.07 14.8 58.6 22 -6.6 20.1
14:35 1019 30.09 849 25.07 14.8 58.7 22 -6.4 20.4
14:40 1019 30.09 849 25.07 15.2 59.3 21 -6.8 19.7
14:45 1019 30.09 848 25.04 15.3 59.5 22 -6.1 21
14:50 1019 30.09 848 25.04 15 59 22 -6.4 20.4
14:55 1019 30.09 848 25.04 15.4 59.7 21 -6.8 19.8
15:00 1019 30.09 848 25.04 14.6 58.3 23 -6.2 20.8
15:05 1019 30.09 848 25.04 14.6 58.2 23 -6.5 20.3
15:10 1019 30.09 848 25.04 15.3 59.6 22 -5.9 21.3
15:15 1019 30.09 848 25.04 15.8 60.4 21 -6.2 20.8
15:20 1019 30.09 848 25.04 15.3 59.5 22 -6.2 20.8
15:25 1019 30.09 848 25.04 16 60.7 22 -5.7 21.7
15:30 1019 30.09 848 25.04 15.5 59.8 23 -5.7 21.8
15:35 1019 30.09 848 25.04 14.9 58.8 23 -5.8 21.5
15:40 1019 30.09 848 25.04 15.2 59.4 23 -5.8 21.6
15:45 1019 30.09 848 25.04 15.2 59.4 23 -5.9 21.4
15:50 1019 30.09 848 25.04 15.9 60.6 22 -5.8 21.6
15:55 1019 30.09 848 25.04 15.8 60.4 21 -6.4 20.5
16:00 1019 30.09 848 25.04 15.7 60.2 22 -6.1 21.1
16:05 1019 30.09 848 25.04 15.6 60.1 22 -6 21.3
16:10 1019 30.09 848 25.04 15.2 59.4 23 -6 21.3
16:15 1019 30.09 848 25.04 15.9 60.6 21 -6.4 20.4
16:20 1019 30.09 848 25.04 16.1 60.9 21 -6 21.3
16:25 1018 30.06 848 25.04 16.6 61.8 21 -6 21.3
16:30 1018 30.06 848 25.04 16.7 62 21 -5.6 21.9
16:35 1018 30.06 848 25.04 16.1 61 22 -5.8 21.6
16:40 1018 30.06 848 25.04 15.6 60 23 -5.7 21.8
16:45 1018 30.06 848 25.04 15.8 60.4 21 -6.1 21
16:50 1018 30.06 848 25.04 16.1 61.1 22 -5.5 22.1
16:55 1018 30.06 848 25.04 15.2 59.4 23 -5.5 22.1
17:00 1018 30.06 848 25.04 15.1 59.1 24 -5.5 22.1
17:05 1018 30.06 848 25.04 14.8 58.6 25 -5 23
17:10 1018 30.06 848 25.04 13.7 56.7 26 -5.2 22.6
17:15 1018 30.06 848 25.04 13 55.4 28 -5.1 22.8
17:20 1018 30.06 848 25.04 12.6 54.7 28 -5.5 22.2
17:25 1018 30.06 848 25.04 12.1 53.8 29 -5.6 22
17:30 1018 30.06 847 25.01 11.9 53.5 29 -5.6 21.9
17:35 1018 30.06 847 25.01 11.9 53.5 29 -5.6 21.9
17:40 1018 30.06 847 25.01 11.7 53.1 29 -5.7 21.8
17:45 1018 30.06 847 25.01 11.6 52.8 30 -5.5 22
17:50 1018 30.06 847 25.01 11.4 52.6 30 -5.7 21.8
17:55 1018 30.06 847 25.01 11.3 52.4 30 -5.7 21.7
18:00 1018 30.06 847 25.01 11.2 52.2 30 -5.8 21.6
18:05 1018 30.06 847 25.01 11.1 51.9 30 -5.7 21.8
18:10 1018 30.06 848 25.04 10.9 51.7 31 -5.7 21.8
18:15 1018 30.06 847 25.01 10.8 51.5 31 -5.7 21.8
18:20 1018 30.06 847 25.01 10.7 51.2 31 -5.8 21.6
18:25 1018 30.06 847 25.01 10.6 51 31 -5.8 21.6
18:30 1018 30.06 847 25.01 10.3 50.5 32 -5.6 21.8
18:35 1018 30.06 847 25.01 10.1 50.2 32 -5.8 21.5
18:40 1018 30.06 847 25.01 9.9 49.8 32 -5.8 21.5
18:45 1018 30.06 847 25.01 9.7 49.5 33 -6 21.3
18:50 1018 30.06 847 25.01 9.5 49.1 33 -5.9 21.3
18:55 1018 30.06 847 25.01 9.3 48.7 34 -5.9 21.4
19:00 1018 30.06 847 25.01 9.1 48.3 34 -6 21.2
19:05 1018 30.06 848 25.04 8.9 47.9 35 -5.9 21.4
19:10 1018 30.06 848 25.04 8.7 47.7 35 -6 21.2
19:15 1018 30.06 848 25.04 8.5 47.4 35 -6.2 20.9
19:20 1018 30.06 848 25.04 8.4 47.2 35 -6.1 20.9
19:25 1018 30.06 848 25.04 8.3 46.9 35 -6.1 21
19:30 1018 30.06 848 25.04 8.1 46.6 36 -6.1 21.1
19:35 1018 30.06 848 25.04 8 46.3 37 -6 21.2
19:40 1018 30.06 848 25.04 7.9 46.2 36 -6.2 20.9
19:45 1018 30.06 848 25.04 7.8 46.1 36 -6.2 20.8
19:50 1019 30.09 848 25.04 7.8 46 36 -6.4 20.4
19:55 1019 30.09 848 25.04 7.6 45.8 36 -6.4 20.6
20:00 1019 30.09 848 25.04 7.5 45.5 36 -6.4 20.4
20:05 1019 30.09 848 25.04 7.4 45.2 36 -6.6 20.2
20:10 1019 30.09 848 25.04 7.3 45.1 37 -6.6 20.2
20:15 1019 30.09 848 25.04 7.2 44.9 36 -6.8 19.7
20:20 1019 30.09 848 25.04 7.1 44.8 37 -6.8 19.8
20:25 1019 30.09 848 25.04 7 44.5 37 -6.7 19.9
20:30 1019 30.09 848 25.04 6.8 44.2 37 -6.7 19.9
20:35 1019 30.09 848 25.04 6.6 43.9 38 -6.8 19.8
20:40 1019 30.09 848 25.04 6.5 43.7 37 -7 19.4
20:45 1019 30.09 848 25.04 6.4 43.5 38 -7 19.4
20:50 1019 30.09 848 25.04 6.3 43.3 38 -7.1 19.3
20:55 1019 30.09 848 25.04 6.2 43.2 38 -7 19.3
21:00 1019 30.09 848 25.04 6.1 43 38 -7 19.4
21:05 1019 30.09 848 25.04 6 42.8 38 -7.2 19
21:10 1019 30.09 848 25.04 5.9 42.7 38 -7.2 19.1
21:15 1019 30.09 848 25.04 5.9 42.5 39 -7.1 19.3
21:20 1019 30.09 848 25.04 5.8 42.4 39 -7.2 19.1
21:25 1019 30.09 848 25.04 5.7 42.3 39 -7.2 19
21:30 1019 30.09 848 25.04 5.6 42.1 39 -7.2 19.1
21:35 1019 30.09 848 25.04 5.4 41.8 40 -7.2 19
21:40 1019 30.09 848 25.04 5.3 41.6 40 -7.3 18.8
21:45 1019 30.09 848 25.04 5.2 41.4 40 -7.2 19
21:50 1019 30.09 848 25.04 5.1 41.2 40 -7.4 18.7
21:55 1019 30.09 848 25.04 5 41 41 -7.3 18.9
22:00 1019 30.09 848 25.04 4.9 40.8 41 -7.4 18.7
22:05 1019 30.09 848 25.04 4.8 40.6 41 -7.4 18.8
22:10 1019 30.09 848 25.04 4.7 40.4 41 -7.4 18.7
22:15 1019 30.09 848 25.04 4.6 40.2 42 -7.4 18.7
22:20 1019 30.09 848 25.04 4.5 40 42 -7.4 18.7
22:25 1019 30.09 848 25.04 4.4 39.9 42 -7.4 18.7
22:30 1019 30.09 848 25.04 4.3 39.7 42 -7.5 18.4
22:35 1019 30.09 848 25.04 4.3 39.7 42 -7.4 18.6
22:40 1019 30.09 848 25.04 4.2 39.6 42 -7.5 18.5
22:45 1019 30.09 848 25.04 4.1 39.5 43 -7.4 18.7
22:50 1019 30.09 848 25.04 4 39.3 43 -7.4 18.6
22:55 1019 30.09 848 25.04 4 39.2 44 -7.3 18.8
23:00 1019 30.09 848 25.04 3.9 39 44 -7.4 18.7
23:05 1019 30.09 848 25.04 3.9 39 44 -7.4 18.6
23:10 1019 30.09 848 25.04 3.8 38.9 44 -7.4 18.8
23:15 1019 30.09 848 25.04 3.7 38.7 44 -7.3 18.9
23:20 1019 30.09 848 25.04 3.7 38.7 44 -7.3 18.8
23:25 1019 30.09 848 25.04 3.7 38.7 44 -7.3 18.8
23:30 1019 30.09 848 25.04 3.6 38.5 45 -7.3 18.9
23:35 1019 30.09 848 25.04 3.6 38.5 45 -7.2 19
23:40 1019 30.09 848 25.04 3.5 38.4 45 -7.2 19.1
23:45 1019 30.09 848 25.04 3.6 38.4 45 -7.2 19.1
23:50 1019 30.09 848 25.04 3.5 38.4 46 -7.1 19.2
23:55 1019 30.09 848 25.04 3.5 38.4 46 -7 19.4
24:00 1019 30.09 848 25.04 3.5 38.3 46 -7 19.4